LFPM 271100Z AUTO 01007KT 330V060 CAVOK 30/22 Q1022

Les avions qui composent notre flotte

Avion Robin DR400-100

Avion école

(freins aux palonniers)

F-GGJG
   * tarif promotionnel appliqué pendant la formation des élèves non brevetés